createdAt,value
2022-12-23T00:03:33.389Z,73.89
2022-12-23T00:08:36.273Z,73.89
2022-12-23T00:13:56.766Z,73.68
2022-12-23T00:18:58.717Z,73.65
2022-12-23T00:24:00.752Z,73.43
2022-12-23T00:29:02.778Z,73.76
2022-12-23T00:34:04.744Z,73.33
2022-12-23T00:39:25.183Z,73.67
2022-12-23T00:44:27.269Z,73.78
2022-12-23T00:49:44.265Z,73.99
2022-12-23T00:54:46.332Z,74.10
2022-12-23T00:59:48.326Z,74.19
2022-12-23T01:05:09.125Z,74.32
2022-12-23T01:10:11.301Z,74.25
2022-12-23T01:15:13.586Z,74.24
2022-12-23T01:20:15.614Z,74.66
2022-12-23T01:25:17.983Z,74.95
2022-12-23T01:30:20.092Z,75.07
2022-12-23T01:35:22.100Z,74.77
2022-12-23T01:40:24.103Z,74.24
2022-12-23T01:45:31.388Z,74.43
2022-12-23T01:50:46.970Z,74.82
2022-12-23T01:55:59.417Z,74.33
2022-12-23T02:01:20.798Z,74.78
2022-12-23T02:06:53.551Z,74.97
2022-12-23T02:12:22.874Z,74.81
2022-12-23T02:17:44.106Z,74.60
2022-12-23T02:23:09.194Z,74.00
2022-12-23T02:28:35.929Z,74.30
2022-12-23T02:33:59.748Z,74.37
2022-12-23T02:39:42.544Z,74.56
2022-12-23T02:45:01.656Z,74.73
2022-12-23T02:50:24.638Z,74.59
2022-12-23T02:55:32.421Z,74.62
2022-12-23T03:00:36.645Z,74.59
2022-12-23T03:05:43.080Z,74.82
2022-12-23T03:11:06.341Z,75.09
2022-12-23T03:16:16.961Z,75.22
2022-12-23T03:21:40.337Z,75.06
2022-12-23T03:26:46.241Z,74.96
2022-12-23T03:31:50.802Z,75.16
2022-12-23T03:36:56.012Z,74.86
2022-12-23T03:42:27.039Z,74.90
2022-12-23T03:47:35.681Z,74.76
2022-12-23T03:52:54.204Z,74.74
2022-12-23T03:58:22.302Z,74.65
2022-12-23T04:03:56.395Z,74.41
2022-12-23T04:08:59.399Z,74.75
2022-12-23T04:14:01.414Z,75.03
2022-12-23T04:19:03.515Z,74.57
2022-12-23T04:24:05.894Z,74.86
2022-12-23T04:29:07.994Z,74.81
2022-12-23T04:34:10.052Z,74.54
2022-12-23T04:39:12.265Z,74.36
2022-12-23T04:44:14.381Z,74.51
2022-12-23T04:49:16.545Z,74.32
2022-12-23T04:54:18.575Z,74.45
2022-12-23T04:59:20.674Z,74.47
2022-12-23T05:04:22.800Z,74.47
2022-12-23T05:09:25.065Z,73.64
2022-12-23T05:14:27.191Z,74.22
2022-12-23T05:19:29.269Z,74.13
2022-12-23T05:24:31.280Z,73.62
2022-12-23T05:29:33.259Z,74.28
2022-12-23T05:34:35.409Z,73.93
2022-12-23T05:39:37.354Z,74.92
2022-12-23T05:44:39.394Z,74.62
2022-12-23T05:49:41.495Z,74.26
2022-12-23T05:54:43.581Z,74.82
2022-12-23T05:59:45.651Z,74.25
2022-12-23T06:04:47.994Z,74.67
2022-12-23T06:09:50.226Z,74.27
2022-12-23T06:14:52.475Z,74.05
2022-12-23T06:19:54.444Z,73.76
2022-12-23T06:24:56.476Z,74.21
2022-12-23T06:29:58.583Z,73.77
2022-12-23T06:35:00.575Z,74.31
2022-12-23T06:40:02.589Z,74.21
2022-12-23T06:45:06.406Z,73.89
2022-12-23T06:50:09.302Z,73.93
2022-12-23T06:55:11.312Z,74.23
2022-12-23T07:00:14.144Z,73.59
2022-12-23T07:05:17.127Z,73.44
2022-12-23T07:10:19.196Z,73.82
2022-12-23T07:15:21.137Z,74.16
2022-12-23T07:20:23.237Z,73.59
2022-12-23T07:25:25.420Z,73.59
2022-12-23T07:30:27.514Z,73.54
2022-12-23T07:35:29.702Z,73.21
2022-12-23T07:40:31.792Z,73.10
2022-12-23T07:45:33.956Z,73.39
2022-12-23T07:50:36.074Z,73.49
2022-12-23T07:55:39.780Z,73.81
2022-12-23T08:00:41.818Z,73.52
2022-12-23T08:05:43.846Z,73.54
2022-12-23T08:10:48.597Z,73.48
2022-12-23T08:15:55.901Z,73.29
2022-12-23T08:21:00.459Z,73.59
2022-12-23T08:26:06.890Z,73.47
2022-12-23T08:31:18.236Z,73.59
2022-12-23T08:36:23.910Z,73.80
2022-12-23T08:41:30.054Z,73.76
2022-12-23T08:46:32.409Z,74.11
2022-12-23T08:51:35.745Z,73.70
2022-12-23T08:56:41.300Z,74.01
2022-12-23T09:01:43.734Z,74.02
2022-12-23T09:06:45.828Z,73.83
2022-12-23T09:11:47.857Z,73.71
2022-12-23T09:16:52.939Z,73.53
2022-12-23T09:21:54.902Z,73.91
2022-12-23T09:26:56.990Z,73.42
2022-12-23T09:31:59.017Z,74.36
2022-12-23T09:37:02.836Z,74.47
2022-12-23T09:42:23.108Z,74.18
2022-12-23T09:47:28.244Z,74.62
2022-12-23T09:52:55.039Z,76.01
2022-12-23T09:58:06.968Z,74.41
2022-12-23T10:03:25.135Z,75.35
2022-12-23T10:08:46.928Z,73.95
2022-12-23T10:13:52.415Z,74.13
2022-12-23T10:19:07.075Z,73.99
2022-12-23T10:24:24.355Z,74.00
2022-12-23T10:29:30.567Z,74.20
2022-12-23T10:34:45.876Z,74.59
2022-12-23T10:40:24.996Z,74.44
2022-12-23T10:45:51.853Z,73.75
2022-12-23T10:51:12.309Z,74.60
2022-12-23T10:56:15.284Z,74.34
2022-12-23T11:01:26.684Z,74.60
2022-12-23T11:06:36.861Z,74.67
2022-12-23T11:12:04.857Z,74.90
2022-12-23T11:17:19.353Z,74.60
2022-12-23T11:22:25.770Z,74.27
2022-12-23T11:27:27.809Z,74.71
2022-12-23T11:32:30.349Z,74.35
2022-12-23T11:37:40.483Z,75.07
2022-12-23T11:42:43.327Z,74.30
2022-12-23T11:47:45.402Z,74.25
2022-12-23T11:53:00.617Z,74.02
2022-12-23T11:58:03.369Z,74.46
2022-12-23T12:03:14.413Z,74.45
2022-12-23T12:08:22.697Z,74.27
2022-12-23T12:13:36.614Z,74.84
2022-12-23T12:18:42.086Z,74.92
2022-12-23T12:23:48.707Z,74.98
2022-12-23T12:28:57.545Z,74.82
2022-12-23T12:34:05.251Z,75.20
2022-12-23T12:39:15.757Z,75.17
2022-12-23T12:44:34.671Z,74.97
2022-12-23T12:49:48.575Z,75.22
2022-12-23T12:55:02.982Z,75.34
2022-12-23T13:00:08.608Z,74.94
2022-12-23T13:05:40.445Z,74.82
2022-12-23T13:10:45.234Z,74.91
2022-12-23T13:15:47.204Z,75.08
2022-12-23T13:20:59.981Z,75.33
2022-12-23T13:26:14.353Z,75.46
2022-12-23T13:31:33.520Z,75.60
2022-12-23T13:37:00.619Z,75.79
2022-12-23T13:42:06.066Z,75.84
2022-12-23T13:47:18.928Z,75.94
2022-12-23T13:52:48.432Z,75.73
2022-12-23T13:58:19.924Z,76.39
2022-12-23T14:03:32.644Z,75.69
2022-12-23T14:08:43.003Z,75.89
2022-12-23T14:13:50.894Z,76.11
2022-12-23T14:19:04.937Z,76.25
2022-12-23T14:24:15.640Z,76.04
2022-12-23T14:29:43.879Z,77.01
2022-12-23T14:35:23.909Z,76.89
2022-12-23T14:40:37.959Z,77.40
2022-12-23T14:45:43.885Z,77.06
2022-12-23T14:50:58.166Z,76.92
2022-12-23T14:56:15.366Z,77.30
2022-12-23T15:01:39.043Z,77.07
2022-12-23T15:06:47.642Z,77.24
2022-12-23T15:11:50.981Z,77.45
2022-12-23T15:16:53.002Z,77.25
2022-12-23T15:22:20.852Z,77.32
2022-12-23T15:27:27.736Z,76.80
2022-12-23T15:32:31.187Z,76.94
2022-12-23T15:37:34.388Z,77.10
2022-12-23T15:42:38.560Z,76.65
2022-12-23T15:47:43.036Z,77.05
2022-12-23T15:52:47.931Z,76.64
2022-12-23T15:57:51.798Z,76.36
2022-12-23T16:03:01.163Z,76.42
2022-12-23T16:08:16.555Z,76.53
2022-12-23T16:13:20.303Z,76.08
2022-12-23T16:18:23.649Z,75.99
2022-12-23T16:23:30.312Z,76.25
2022-12-23T16:28:52.612Z,76.28
2022-12-23T16:33:59.166Z,76.22
2022-12-23T16:39:06.906Z,75.85
2022-12-23T16:44:08.900Z,76.15
2022-12-23T16:49:16.945Z,76.37
2022-12-23T16:54:20.470Z,76.22
2022-12-23T16:59:22.642Z,75.84
2022-12-23T17:04:24.614Z,75.85
2022-12-23T17:09:27.611Z,75.69
2022-12-23T17:14:29.776Z,75.87
2022-12-23T17:19:32.951Z,75.87
2022-12-23T17:24:35.100Z,75.90
2022-12-23T17:29:37.084Z,75.81
2022-12-23T17:34:39.596Z,76.14
2022-12-23T17:39:43.175Z,75.75
2022-12-23T17:44:45.540Z,76.27
2022-12-23T17:49:47.935Z,76.17
2022-12-23T17:54:51.409Z,76.51
2022-12-23T17:59:54.778Z,76.58
2022-12-23T18:04:56.875Z,76.61
2022-12-23T18:09:58.962Z,76.71
2022-12-23T18:15:02.319Z,76.33
2022-12-23T18:20:06.439Z,76.73
2022-12-23T18:25:15.636Z,77.22
2022-12-23T18:30:18.337Z,76.70
2022-12-23T18:35:27.853Z,76.65
2022-12-23T18:40:32.897Z,76.55
2022-12-23T18:45:39.903Z,76.78
2022-12-23T18:50:43.005Z,76.53
2022-12-23T18:55:45.093Z,76.75
2022-12-23T19:00:48.437Z,76.55
2022-12-23T19:05:52.104Z,76.94
2022-12-23T19:10:55.467Z,76.23
2022-12-23T19:15:57.597Z,76.61
2022-12-23T19:21:04.210Z,76.49
2022-12-23T19:26:06.381Z,75.79
2022-12-23T19:31:13.156Z,76.27
2022-12-23T19:36:22.802Z,76.12
2022-12-23T19:41:25.481Z,76.26
2022-12-23T19:46:27.530Z,76.00
2022-12-23T19:51:30.641Z,76.12
2022-12-23T19:56:32.761Z,75.85
2022-12-23T20:01:35.163Z,76.16
2022-12-23T20:06:38.503Z,75.66
2022-12-23T20:11:46.638Z,75.83
2022-12-23T20:16:49.436Z,75.48
2022-12-23T20:21:52.190Z,75.26
2022-12-23T20:26:54.227Z,75.24
2022-12-23T20:31:57.240Z,75.81
2022-12-23T20:36:59.385Z,75.21
2022-12-23T20:42:01.443Z,75.25
2022-12-23T20:47:05.656Z,75.19
2022-12-23T20:52:07.820Z,75.03
2022-12-23T20:57:09.862Z,74.66
2022-12-23T21:02:15.774Z,74.29
2022-12-23T21:07:17.978Z,74.82
2022-12-23T21:12:20.031Z,74.42
2022-12-23T21:17:23.909Z,74.33
2022-12-23T21:22:26.424Z,75.07
2022-12-23T21:27:28.490Z,74.87
2022-12-23T21:32:30.564Z,74.78
2022-12-23T21:37:32.574Z,74.62
2022-12-23T21:42:34.599Z,74.65
2022-12-23T21:47:36.749Z,74.70
2022-12-23T21:52:38.742Z,74.73
2022-12-23T21:57:40.755Z,74.50
2022-12-23T22:02:42.944Z,74.41
2022-12-23T22:07:45.027Z,74.00
2022-12-23T22:12:47.097Z,73.71
2022-12-23T22:17:49.147Z,74.27
2022-12-23T22:22:51.169Z,73.50
2022-12-23T22:27:53.177Z,74.16
2022-12-23T22:32:55.659Z,73.88
2022-12-23T22:37:59.255Z,74.46
2022-12-23T22:43:01.203Z,74.15
2022-12-23T22:48:03.221Z,74.11
2022-12-23T22:53:05.962Z,73.95
2022-12-23T22:58:08.048Z,73.41
2022-12-23T23:03:10.012Z,73.56
2022-12-23T23:08:14.640Z,73.46
2022-12-23T23:13:16.741Z,73.28
2022-12-23T23:18:19.056Z,72.71
2022-12-23T23:23:21.711Z,73.39
2022-12-23T23:28:23.718Z,73.17
2022-12-23T23:33:25.717Z,74.80
2022-12-23T23:38:28.451Z,73.82
2022-12-23T23:43:30.672Z,73.79
2022-12-23T23:48:32.738Z,73.50
2022-12-23T23:53:34.864Z,73.99
2022-12-23T23:58:37.467Z,73.81
